Time;durP1;ratioP1;P1;durP2;ratioP2;P2;SDS_P1;SDS_P2;PMS_P1;PMS_P2;Temp;Humidity;BMP_temperature;BMP_pressure;BME280_temperature;BME280_humidity;BME280_pressure;Samples;Min_cycle;Max_cycle;Signal;HPM_P1;HPM_P2
2024/01/25 00:01:11;;;;;;;33.20;20.95;;;;;;;;;;5041717;28;20051;-68
2024/01/25 00:04:55;;;;;;;34.60;21.75;;;;;;;;;;5044317;28;20412;-69
2024/01/25 00:08:35;;;;;;;30.58;22.08;;;;;;;;;;5045757;28;20051;-69
2024/01/25 00:12:17;;;;;;;42.85;23.60;;;;;;;;;;5039861;28;20488;-70
2024/01/25 00:15:57;;;;;;;36.75;23.08;;;;;;;;;;5043572;28;20041;-67
2024/01/25 00:19:40;;;;;;;32.45;23.35;;;;;;;;;;5046376;28;20079;-69
2024/01/25 00:23:19;;;;;;;39.78;24.65;;;;;;;;;;5047032;28;20060;-69
2024/01/25 00:26:59;;;;;;;32.25;23.27;;;;;;;;;;5046367;28;20630;-68
2024/01/25 00:30:40;;;;;;;31.50;20.77;;;;;;;;;;5045931;28;20036;-68
2024/01/25 00:34:20;;;;;;;31.80;20.92;;;;;;;;;;5045376;28;20052;-67
2024/01/25 00:38:02;;;;;;;28.42;19.27;;;;;;;;;;5042107;28;20505;-68
2024/01/25 00:41:42;;;;;;;28.15;18.05;;;;;;;;;;5032596;28;20052;-67
2024/01/25 00:45:23;;;;;;;27.67;17.23;;;;;;;;;;5050087;28;20053;-67
2024/01/25 00:49:04;;;;;;;28.75;16.38;;;;;;;;;;5043121;28;20044;-68
2024/01/25 00:52:45;;;;;;;36.40;18.88;;;;;;;;;;5037449;28;20053;-69
2024/01/25 00:56:25;;;;;;;49.13;27.60;;;;;;;;;;5037074;28;20049;-69
2024/01/25 01:00:06;;;;;;;46.72;27.50;;;;;;;;;;5044994;28;20045;-66
2024/01/25 01:03:52;;;;;;;45.65;25.85;;;;;;;;;;5046861;28;20044;-69
2024/01/25 01:07:29;;;;;;;48.17;27.73;;;;;;;;;;5045414;28;20063;-67
2024/01/25 01:11:09;;;;;;;51.30;28.38;;;;;;;;;;5044227;28;20048;-69
2024/01/25 01:14:50;;;;;;;59.45;33.20;;;;;;;;;;5038218;28;20085;-66
2024/01/25 01:18:31;;;;;;;71.47;35.72;;;;;;;;;;5048443;28;20045;-68
2024/01/25 01:22:11;;;;;;;59.50;35.55;;;;;;;;;;5042971;28;20091;-67
2024/01/25 01:25:51;;;;;;;65.90;35.08;;;;;;;;;;5040469;28;20041;-70
2024/01/25 01:29:31;;;;;;;57.90;30.58;;;;;;;;;;5045268;28;20059;-67
2024/01/25 01:33:12;;;;;;;61.60;30.60;;;;;;;;;;5044666;28;20163;-68
2024/01/25 01:36:52;;;;;;;50.13;29.00;;;;;;;;;;5045612;28;20043;-69
2024/01/25 01:40:32;;;;;;;48.15;25.00;;;;;;;;;;5042632;28;20080;-68
2024/01/25 01:44:13;;;;;;;42.35;23.33;;;;;;;;;;5044684;28;20083;-67
2024/01/25 01:47:53;;;;;;;42.42;22.65;;;;;;;;;;5047568;28;20049;-68
2024/01/25 01:51:34;;;;;;;38.65;21.58;;;;;;;;;;5047497;28;20041;-67
2024/01/25 01:55:14;;;;;;;32.78;19.63;;;;;;;;;;5045378;28;20084;-67
2024/01/25 01:58:56;;;;;;;34.88;20.40;;;;;;;;;;5047121;28;20198;-67
2024/01/25 02:02:36;;;;;;;40.67;21.05;;;;;;;;;;5047156;28;20441;-68
2024/01/25 02:06:17;;;;;;;35.47;20.00;;;;;;;;;;5043803;28;20045;-67
2024/01/25 02:09:57;;;;;;;32.97;17.35;;;;;;;;;;5044389;28;20052;-68
2024/01/25 02:13:37;;;;;;;27.10;16.55;;;;;;;;;;5041675;28;20496;-68
2024/01/25 02:17:18;;;;;;;34.13;19.00;;;;;;;;;;5044871;28;20045;-67
2024/01/25 02:20:58;;;;;;;32.78;17.60;;;;;;;;;;5046323;28;20098;-69
2024/01/25 02:24:39;;;;;;;34.00;17.45;;;;;;;;;;5044803;28;20068;-68
2024/01/25 02:28:19;;;;;;;29.17;16.15;;;;;;;;;;5045863;28;20518;-67
2024/01/25 02:31:59;;;;;;;29.20;16.88;;;;;;;;;;5048835;28;20741;-68
2024/01/25 02:35:40;;;;;;;27.55;17.63;;;;;;;;;;5044626;28;20048;-67
2024/01/25 02:39:20;;;;;;;34.45;17.73;;;;;;;;;;5047552;28;20049;-68
2024/01/25 02:43:00;;;;;;;33.45;17.50;;;;;;;;;;5045302;28;20520;-67
2024/01/25 02:46:44;;;;;;;27.42;17.20;;;;;;;;;;5047242;28;20375;-68
2024/01/25 02:50:24;;;;;;;28.45;16.75;;;;;;;;;;5046826;28;20126;-67
2024/01/25 02:54:04;;;;;;;28.27;16.63;;;;;;;;;;5046625;28;20053;-68
2024/01/25 02:57:44;;;;;;;26.80;16.30;;;;;;;;;;5045291;28;20451;-67
2024/01/25 03:01:25;;;;;;;29.92;15.98;;;;;;;;;;5043811;28;20511;-67
2024/01/25 03:05:06;;;;;;;23.80;15.52;;;;;;;;;;5047226;28;20056;-67
2024/01/25 03:08:47;;;;;;;22.85;14.50;;;;;;;;;;5045692;28;20836;-68
2024/01/25 03:12:43;;;;;;;21.88;14.18;;;;;;;;;;5044626;28;20060;-68
2024/01/25 03:16:23;;;;;;;22.90;14.70;;;;;;;;;;5044510;28;20464;-66
2024/01/25 03:20:05;;;;;;;21.95;13.93;;;;;;;;;;5049196;28;20513;-66
2024/01/25 03:23:45;;;;;;;22.75;14.57;;;;;;;;;;5046058;28;20454;-68
2024/01/25 03:27:26;;;;;;;19.42;12.80;;;;;;;;;;5044061;28;20230;-67
2024/01/25 03:31:06;;;;;;;25.30;14.25;;;;;;;;;;5040541;28;20059;-67
2024/01/25 03:34:46;;;;;;;18.65;13.32;;;;;;;;;;5039907;28;20570;-67
2024/01/25 03:38:27;;;;;;;20.65;13.82;;;;;;;;;;5047128;28;20056;-68
2024/01/25 03:42:07;;;;;;;24.02;13.23;;;;;;;;;;5042825;28;20057;-68
2024/01/25 03:45:48;;;;;;;22.60;12.98;;;;;;;;;;5040309;28;20451;-69
2024/01/25 03:49:29;;;;;;;26.30;13.07;;;;;;;;;;5039738;28;20701;-69
2024/01/25 03:53:09;;;;;;;20.05;12.88;;;;;;;;;;5047849;28;20405;-70
2024/01/25 03:56:50;;;;;;;18.52;12.38;;;;;;;;;;5044611;28;20041;-67
2024/01/25 04:00:30;;;;;;;20.60;12.43;;;;;;;;;;5051390;28;20069;-69
2024/01/25 04:04:11;;;;;;;20.92;12.93;;;;;;;;;;5048326;28;20508;-68
2024/01/25 04:07:51;;;;;;;21.73;12.93;;;;;;;;;;5040928;28;20042;-68
2024/01/25 04:11:32;;;;;;;23.80;12.43;;;;;;;;;;5043545;28;20413;-68
2024/01/25 04:15:13;;;;;;;26.10;12.18;;;;;;;;;;5045471;28;20079;-69
2024/01/25 04:18:54;;;;;;;24.65;12.07;;;;;;;;;;5046866;28;20102;-67
2024/01/25 04:22:34;;;;;;;21.55;12.20;;;;;;;;;;5044185;28;20065;-68
2024/01/25 04:26:18;;;;;;;24.13;12.00;;;;;;;;;;5047088;28;20553;-68
2024/01/25 04:29:58;;;;;;;20.70;11.55;;;;;;;;;;5044486;28;20049;-67
2024/01/25 04:33:40;;;;;;;21.40;11.55;;;;;;;;;;5048026;28;20049;-68
2024/01/25 04:37:19;;;;;;;20.38;11.95;;;;;;;;;;5046952;28;20052;-67
2024/01/25 04:40:59;;;;;;;23.67;12.02;;;;;;;;;;5045968;28;20075;-68
2024/01/25 04:44:40;;;;;;;21.90;11.98;;;;;;;;;;5044145;28;20064;-69
2024/01/25 04:48:20;;;;;;;24.77;11.98;;;;;;;;;;5046907;28;20051;-68
2024/01/25 04:52:00;;;;;;;17.88;11.95;;;;;;;;;;5045659;28;20484;-70
2024/01/25 04:55:41;;;;;;;21.58;12.40;;;;;;;;;;5043558;28;20077;-67
2024/01/25 04:59:22;;;;;;;17.45;11.40;;;;;;;;;;5045396;28;20052;-67
2024/01/25 05:03:04;;;;;;;22.63;11.85;;;;;;;;;;5044326;28;20056;-68
2024/01/25 05:06:44;;;;;;;24.17;11.82;;;;;;;;;;5042765;28;20065;-68
2024/01/25 05:10:29;;;;;;;19.58;11.65;;;;;;;;;;5047135;28;20048;-68
2024/01/25 05:14:09;;;;;;;25.05;12.23;;;;;;;;;;5050061;28;20045;-67
2024/01/25 05:17:50;;;;;;;21.52;11.45;;;;;;;;;;5044429;28;20381;-68
2024/01/25 05:21:33;;;;;;;21.10;12.18;;;;;;;;;;5051547;28;20053;-67
2024/01/25 05:25:13;;;;;;;26.55;12.23;;;;;;;;;;5049279;28;20048;-67
2024/01/25 05:28:53;;;;;;;24.20;12.15;;;;;;;;;;5049390;28;20040;-69
2024/01/25 05:32:35;;;;;;;32.88;12.23;;;;;;;;;;5044711;28;20502;-70
2024/01/25 05:36:17;;;;;;;21.17;11.45;;;;;;;;;;5045167;28;20041;-67
2024/01/25 05:39:57;;;;;;;21.05;10.60;;;;;;;;;;5044226;28;20073;-68
2024/01/25 05:43:39;;;;;;;18.85;10.25;;;;;;;;;;5044610;28;20037;-68
2024/01/25 05:47:19;;;;;;;20.75;10.05;;;;;;;;;;5043317;28;20404;-67
2024/01/25 05:51:00;;;;;;;19.65;9.95;;;;;;;;;;5044108;28;20545;-68
2024/01/25 05:54:40;;;;;;;23.90;9.75;;;;;;;;;;5045728;28;20214;-69
2024/01/25 05:58:23;;;;;;;22.55;10.13;;;;;;;;;;5042490;28;20048;-69
2024/01/25 06:02:03;;;;;;;17.85;7.65;;;;;;;;;;5042923;28;20057;-70
2024/01/25 06:05:43;;;;;;;18.98;7.20;;;;;;;;;;5043421;28;20071;-71
2024/01/25 06:09:25;;;;;;;19.67;7.38;;;;;;;;;;5050550;28;20045;-71
2024/01/25 06:13:06;;;;;;;20.10;5.95;;;;;;;;;;5051192;28;20091;-71
2024/01/25 06:16:46;;;;;;;17.70;6.28;;;;;;;;;;5042139;28;20179;-68
2024/01/25 06:20:26;;;;;;;10.88;5.97;;;;;;;;;;5045052;28;20037;-68
2024/01/25 06:24:07;;;;;;;13.00;6.15;;;;;;;;;;5047583;28;20056;-71
2024/01/25 06:27:48;;;;;;;17.13;5.90;;;;;;;;;;5042588;28;20041;-68
2024/01/25 06:31:28;;;;;;;10.95;5.63;;;;;;;;;;5047502;28;20071;-70
2024/01/25 06:35:08;;;;;;;12.80;6.32;;;;;;;;;;5041293;28;20104;-70
2024/01/25 06:38:49;;;;;;;15.15;6.30;;;;;;;;;;5043884;28;20067;-68
2024/01/25 06:42:29;;;;;;;14.88;6.97;;;;;;;;;;5041530;28;20041;-71
2024/01/25 06:46:10;;;;;;;15.93;7.28;;;;;;;;;;5035733;28;20052;-72
2024/01/25 06:49:53;;;;;;;17.27;8.15;;;;;;;;;;5042826;28;20053;-72
2024/01/25 06:53:34;;;;;;;26.08;9.35;;;;;;;;;;5038736;28;20053;-70
2024/01/25 06:57:14;;;;;;;19.20;8.13;;;;;;;;;;5042592;28;20372;-69
2024/01/25 07:00:55;;;;;;;17.05;8.80;;;;;;;;;;5041777;28;20049;-74
2024/01/25 07:04:40;;;;;;;19.25;9.05;;;;;;;;;;5046366;28;20249;-71
2024/01/25 07:08:21;;;;;;;25.25;9.82;;;;;;;;;;5045797;28;20535;-71
2024/01/25 07:12:01;;;;;;;30.02;10.23;;;;;;;;;;5049466;28;20480;-72
2024/01/25 07:15:45;;;;;;;24.85;10.15;;;;;;;;;;5044053;28;21381;-72
2024/01/25 07:19:25;;;;;;;26.98;10.93;;;;;;;;;;5049264;28;20040;-71
2024/01/25 07:23:07;;;;;;;20.05;10.52;;;;;;;;;;5050219;28;20045;-73
2024/01/25 07:26:07;;;;;;;23.27;10.52;;;;;;;;;;5038588;28;20523;-71
2024/01/25 07:28:34;;;;;;;30.48;11.30;;;;;;;;;;5046941;28;20052;-78
2024/01/25 07:31:02;;;;;;;28.35;10.48;;;;;;;;;;5043017;28;20194;-74
2024/01/25 07:33:32;;;;;;;21.25;10.85;;;;;;;;;;5040242;28;20227;-66
2024/01/25 07:36:00;;;;;;;26.70;10.95;;;;;;;;;;5043703;28;20202;-72
2024/01/25 07:38:29;;;;;;;25.17;10.52;;;;;;;;;;5051464;28;20471;-68
2024/01/25 07:40:58;;;;;;;21.92;10.43;;;;;;;;;;5043264;28;20179;-68
2024/01/25 07:43:24;;;;;;;25.00;10.98;;;;;;;;;;5042901;28;20087;-66
2024/01/25 07:45:50;;;;;;;19.60;9.55;;;;;;;;;;5042549;28;20135;-71
2024/01/25 07:48:18;;;;;;;28.70;10.43;;;;;;;;;;5049016;28;20516;-65
2024/01/25 07:50:44;;;;;;;31.77;10.68;;;;;;;;;;5042755;28;20041;-69
2024/01/25 07:53:12;;;;;;;31.40;10.55;;;;;;;;;;5055655;28;20067;-71
2024/01/25 07:55:38;;;;;;;26.45;10.52;;;;;;;;;;5052326;28;20049;-64
2024/01/25 07:58:08;;;;;;;23.38;9.18;;;;;;;;;;5045864;28;20076;-70
2024/01/25 08:01:15;;;;;;;20.88;9.50;;;;;;;;;;5045389;28;20157;-70
2024/01/25 08:04:57;;;;;;;22.38;9.00;;;;;;;;;;5044226;28;20460;-70
2024/01/25 08:08:38;;;;;;;25.35;8.48;;;;;;;;;;5048847;28;20059;-69
2024/01/25 08:11:40;;;;;;;32.38;9.82;;;;;;;;;;5046134;28;20272;-68
2024/01/25 08:14:15;;;;;;;21.13;9.27;;;;;;;;;;5046650;28;20198;-69
2024/01/25 08:16:45;;;;;;;30.63;10.32;;;;;;;;;;5047374;28;20072;-70
2024/01/25 08:19:14;;;;;;;28.55;10.40;;;;;;;;;;5061346;28;20088;-68
2024/01/25 08:21:39;;;;;;;21.95;10.32;;;;;;;;;;5045602;28;20064;-68
2024/01/25 08:24:09;;;;;;;27.02;9.88;;;;;;;;;;5044379;28;20697;-68
2024/01/25 08:26:34;;;;;;;48.08;11.27;;;;;;;;;;5046655;28;20045;-70
2024/01/25 08:29:01;;;;;;;48.08;11.32;;;;;;;;;;5047477;28;20823;-67
2024/01/25 08:31:27;;;;;;;36.60;12.75;;;;;;;;;;5063150;28;20052;-69
2024/01/25 08:33:55;;;;;;;41.60;10.43;;;;;;;;;;5045225;28;20057;-69
2024/01/25 08:37:02;;;;;;;37.58;11.65;;;;;;;;;;5048768;28;20049;-67
2024/01/25 08:40:45;;;;;;;28.67;10.65;;;;;;;;;;5041634;28;20045;-67
2024/01/25 08:44:25;;;;;;;26.75;11.20;;;;;;;;;;5051500;28;20055;-67
2024/01/25 08:48:08;;;;;;;24.75;10.07;;;;;;;;;;5045371;28;20489;-70
2024/01/25 08:51:49;;;;;;;37.30;10.98;;;;;;;;;;5049950;28;20128;-68
2024/01/25 08:55:29;;;;;;;22.77;11.00;;;;;;;;;;5045901;28;20447;-68
2024/01/25 08:59:10;;;;;;;24.80;8.60;;;;;;;;;;5044488;28;20057;-69
2024/01/25 09:02:50;;;;;;;22.23;8.45;;;;;;;;;;5048250;28;20041;-70
2024/01/25 09:06:31;;;;;;;16.92;6.60;;;;;;;;;;5045791;28;20083;-69
2024/01/25 09:10:11;;;;;;;17.23;7.43;;;;;;;;;;5046666;28;20143;-66
2024/01/25 09:13:53;;;;;;;17.75;6.72;;;;;;;;;;5043099;28;20061;-67
2024/01/25 09:17:34;;;;;;;28.30;6.80;;;;;;;;;;5047493;28;20044;-68
2024/01/25 09:21:21;;;;;;;10.80;5.53;;;;;;;;;;5040485;28;20095;-68
2024/01/25 09:25:01;;;;;;;14.68;5.50;;;;;;;;;;5045550;28;20053;-69
2024/01/25 09:28:42;;;;;;;18.10;6.45;;;;;;;;;;5045237;28;20378;-70
2024/01/25 09:32:23;;;;;;;27.27;6.30;;;;;;;;;;5046185;28;20076;-70
2024/01/25 09:36:04;;;;;;;16.92;7.43;;;;;;;;;;5046727;28;20049;-70
2024/01/25 09:39:46;;;;;;;17.75;6.88;;;;;;;;;;5042056;28;20037;-63
2024/01/25 09:43:27;;;;;;;19.27;6.47;;;;;;;;;;5041634;28;20056;-64
2024/01/25 09:47:08;;;;;;;19.10;7.18;;;;;;;;;;5045206;28;20130;-65
2024/01/25 09:50:48;;;;;;;14.57;7.40;;;;;;;;;;5046358;28;20139;-64
2024/01/25 09:54:28;;;;;;;20.70;7.35;;;;;;;;;;5045152;28;20049;-64
2024/01/25 09:58:11;;;;;;;21.63;7.40;;;;;;;;;;5043887;28;20049;-65
2024/01/25 10:01:51;;;;;;;18.63;7.72;;;;;;;;;;5044100;28;20084;-64
2024/01/25 10:05:34;;;;;;;22.33;7.25;;;;;;;;;;5044792;28;20091;-68
2024/01/25 10:09:15;;;;;;;20.67;7.82;;;;;;;;;;5044171;28;20450;-68
2024/01/25 10:12:56;;;;;;;16.23;7.22;;;;;;;;;;5039496;28;20121;-71
2024/01/25 10:16:37;;;;;;;19.52;8.25;;;;;;;;;;5043324;28;20165;-65
2024/01/25 10:20:21;;;;;;;20.30;7.00;;;;;;;;;;5046963;28;20099;-64
2024/01/25 10:23:59;;;;;;;21.73;9.82;;;;;;;;;;5047302;28;20492;-67
2024/01/25 10:27:42;;;;;;;23.60;7.68;;;;;;;;;;5048327;28;20238;-66
2024/01/25 10:31:21;;;;;;;15.75;6.68;;;;;;;;;;5044793;28;20052;-69
2024/01/25 10:35:02;;;;;;;18.25;6.72;;;;;;;;;;5045788;28;20091;-66
2024/01/25 10:38:42;;;;;;;16.83;6.93;;;;;;;;;;5042982;28;20111;-66
2024/01/25 10:42:23;;;;;;;19.10;8.07;;;;;;;;;;5046372;28;20049;-66
2024/01/25 10:46:03;;;;;;;23.38;7.28;;;;;;;;;;5048027;28;20107;-66
2024/01/25 10:49:44;;;;;;;17.55;5.95;;;;;;;;;;5050355;28;20396;-66
2024/01/25 10:53:25;;;;;;;17.58;6.75;;;;;;;;;;5049402;28;20156;-67
2024/01/25 10:57:08;;;;;;;15.95;4.75;;;;;;;;;;5045522;28;20064;-66
2024/01/25 11:00:53;;;;;;;21.17;5.35;;;;;;;;;;5045806;28;20048;-66
2024/01/25 11:04:36;;;;;;;10.95;4.53;;;;;;;;;;5044161;28;20124;-68
2024/01/25 11:08:22;;;;;;;9.77;4.15;;;;;;;;;;5044523;28;20400;-67
2024/01/25 11:12:03;;;;;;;22.88;5.50;;;;;;;;;;5046423;28;20045;-68
2024/01/25 11:15:52;;;;;;;12.68;6.05;;;;;;;;;;5044593;28;20037;-67
2024/01/25 11:19:38;;;;;;;10.38;5.28;;;;;;;;;;5042316;28;20048;-66
2024/01/25 11:23:18;;;;;;;8.60;4.80;;;;;;;;;;5048538;28;20045;-68
2024/01/25 11:26:58;;;;;;;15.68;5.15;;;;;;;;;;5048389;28;20047;-69
2024/01/25 11:30:39;;;;;;;19.65;5.55;;;;;;;;;;5047128;28;20063;-64
2024/01/25 11:34:20;;;;;;;16.40;5.40;;;;;;;;;;5053379;28;20389;-65
2024/01/25 11:38:00;;;;;;;13.80;5.35;;;;;;;;;;5049818;28;20049;-66
2024/01/25 11:41:40;;;;;;;7.43;5.00;;;;;;;;;;5048080;28;20520;-67
2024/01/25 11:45:20;;;;;;;14.77;5.25;;;;;;;;;;5048199;28;20128;-65
2024/01/25 11:49:01;;;;;;;13.60;5.50;;;;;;;;;;5050710;28;20399;-64
2024/01/25 11:52:41;;;;;;;16.55;6.40;;;;;;;;;;5046420;28;20487;-65
2024/01/25 11:56:21;;;;;;;20.65;9.27;;;;;;;;;;5048943;28;20365;-65
2024/01/25 12:00:02;;;;;;;24.77;11.15;;;;;;;;;;5046171;28;20061;-65
2024/01/25 12:03:42;;;;;;;32.17;11.35;;;;;;;;;;5045874;28;20045;-65
2024/01/25 12:07:22;;;;;;;17.70;10.23;;;;;;;;;;5046801;28;20047;-66
2024/01/25 12:11:03;;;;;;;28.05;10.23;;;;;;;;;;5044718;28;20055;-65
2024/01/25 12:14:35;;;;;;;16.85;9.48;;;;;;;;;;5047671;28;20048;-64
2024/01/25 12:18:13;;;;;;;19.38;10.05;;;;;;;;;;5048740;28;20080;-65
2024/01/25 12:21:53;;;;;;;19.73;9.90;;;;;;;;;;5039787;28;20386;-66
2024/01/25 12:25:33;;;;;;;17.40;9.48;;;;;;;;;;5046396;28;20045;-68
2024/01/25 12:29:17;;;;;;;16.92;9.15;;;;;;;;;;5041392;28;20053;-66
2024/01/25 12:32:57;;;;;;;25.13;9.30;;;;;;;;;;5047193;28;20053;-66
2024/01/25 12:36:38;;;;;;;20.00;9.93;;;;;;;;;;5045987;28;20044;-66
2024/01/25 12:40:17;;;;;;;19.90;9.88;;;;;;;;;;5049624;28;20106;-67
2024/01/25 12:43:58;;;;;;;25.85;10.43;;;;;;;;;;5048579;28;20095;-66
2024/01/25 12:47:38;;;;;;;25.63;10.05;;;;;;;;;;5047974;28;20469;-67
2024/01/25 12:51:18;;;;;;;18.63;9.88;;;;;;;;;;5047507;28;20130;-67
2024/01/25 12:54:59;;;;;;;26.33;10.18;;;;;;;;;;5046875;28;20068;-65
2024/01/25 12:58:46;;;;;;;20.05;10.23;;;;;;;;;;5046813;28;20053;-67
2024/01/25 13:02:26;;;;;;;23.35;9.18;;;;;;;;;;5047258;28;20433;-68
2024/01/25 13:06:07;;;;;;;16.85;7.88;;;;;;;;;;5048460;28;20543;-68
2024/01/25 13:09:50;;;;;;;25.50;8.32;;;;;;;;;;5043476;28;20191;-69
2024/01/25 13:13:30;;;;;;;18.33;9.15;;;;;;;;;;5042451;28;20352;-67
2024/01/25 13:17:10;;;;;;;16.10;7.53;;;;;;;;;;5046120;28;20068;-66
2024/01/25 13:20:51;;;;;;;14.00;7.18;;;;;;;;;;5043330;28;20092;-65
2024/01/25 13:24:32;;;;;;;14.75;7.25;;;;;;;;;;5041873;28;20210;-67
2024/01/25 13:28:13;;;;;;;17.40;7.80;;;;;;;;;;5045833;28;20119;-67
2024/01/25 13:31:54;;;;;;;14.90;7.40;;;;;;;;;;5046641;28;20044;-65
2024/01/25 13:35:37;;;;;;;12.35;7.20;;;;;;;;;;5040476;28;20077;-69
2024/01/25 13:39:18;;;;;;;11.63;6.40;;;;;;;;;;5044528;28;20265;-69
2024/01/25 13:42:59;;;;;;;12.77;7.00;;;;;;;;;;5046017;28;20049;-67
2024/01/25 13:46:40;;;;;;;14.10;6.85;;;;;;;;;;5046592;28;20087;-66
2024/01/25 13:50:22;;;;;;;16.48;9.30;;;;;;;;;;5043959;28;20041;-69
2024/01/25 13:54:03;;;;;;;17.27;6.78;;;;;;;;;;5033391;28;20124;-66
2024/01/25 13:57:43;;;;;;;13.80;7.30;;;;;;;;;;5044239;28;20041;-68
2024/01/25 14:01:24;;;;;;;13.68;7.40;;;;;;;;;;5038597;28;20060;-70
2024/01/25 14:05:04;;;;;;;12.77;6.85;;;;;;;;;;5040189;28;20481;-67
2024/01/25 14:08:46;;;;;;;16.38;7.28;;;;;;;;;;5045735;28;20242;-70
2024/01/25 14:12:28;;;;;;;13.07;7.18;;;;;;;;;;5045160;28;20461;-67
2024/01/25 14:16:09;;;;;;;13.60;7.90;;;;;;;;;;5039563;28;20052;-67
2024/01/25 14:19:48;;;;;;;14.68;8.43;;;;;;;;;;5042772;28;20057;-66
2024/01/25 14:23:29;;;;;;;16.52;11.38;;;;;;;;;;5049582;28;20430;-67
2024/01/25 14:27:10;;;;;;;12.82;7.95;;;;;;;;;;5049303;28;20053;-67
2024/01/25 14:30:51;;;;;;;12.15;8.88;;;;;;;;;;5050666;28;20440;-68
2024/01/25 14:34:31;;;;;;;18.70;11.02;;;;;;;;;;5044756;28;20057;-69
2024/01/25 14:38:11;;;;;;;15.88;8.95;;;;;;;;;;5048968;28;20045;-69
2024/01/25 14:41:53;;;;;;;14.60;9.18;;;;;;;;;;5038993;28;20041;-69
2024/01/25 14:45:36;;;;;;;14.07;8.27;;;;;;;;;;5049296;28;20102;-68
2024/01/25 14:49:16;;;;;;;10.95;8.32;;;;;;;;;;5050323;28;20045;-67
2024/01/25 14:52:57;;;;;;;15.38;9.52;;;;;;;;;;5048167;28;20180;-68
2024/01/25 14:56:38;;;;;;;16.25;10.10;;;;;;;;;;5046424;28;20052;-66
2024/01/25 15:00:20;;;;;;;17.67;10.35;;;;;;;;;;5048728;28;20519;-67
2024/01/25 15:04:02;;;;;;;20.67;11.20;;;;;;;;;;5049403;28;20187;-67
2024/01/25 15:07:42;;;;;;;15.60;10.30;;;;;;;;;;5048814;28;20400;-66
2024/01/25 15:11:24;;;;;;;16.02;10.60;;;;;;;;;;5049242;28;20049;-67
2024/01/25 15:15:05;;;;;;;16.15;11.15;;;;;;;;;;5045732;28;20521;-69
2024/01/25 15:18:47;;;;;;;21.08;11.55;;;;;;;;;;5050659;28;20102;-66
2024/01/25 15:22:27;;;;;;;18.88;11.57;;;;;;;;;;5045800;28;20056;-67
2024/01/25 15:26:08;;;;;;;24.00;11.95;;;;;;;;;;5048174;28;20053;-67
2024/01/25 15:29:48;;;;;;;24.38;12.35;;;;;;;;;;5042237;28;20048;-67
2024/01/25 15:33:29;;;;;;;21.20;12.77;;;;;;;;;;5048658;28;20435;-72
2024/01/25 15:37:11;;;;;;;19.38;12.55;;;;;;;;;;5041739;28;20234;-68
2024/01/25 15:40:53;;;;;;;19.85;12.85;;;;;;;;;;5051088;28;20489;-68
2024/01/25 15:44:33;;;;;;;21.70;13.55;;;;;;;;;;5052348;28;20033;-68
2024/01/25 15:48:14;;;;;;;19.90;13.50;;;;;;;;;;5051516;28;20041;-70
2024/01/25 15:51:54;;;;;;;21.48;13.23;;;;;;;;;;5039971;28;20642;-67
2024/01/25 15:55:35;;;;;;;29.02;14.73;;;;;;;;;;5045692;28;20051;-69
2024/01/25 15:59:17;;;;;;;28.15;15.88;;;;;;;;;;5048091;28;20041;-71
2024/01/25 16:02:57;;;;;;;21.25;13.77;;;;;;;;;;5045132;28;20084;-66
2024/01/25 16:06:37;;;;;;;21.52;15.45;;;;;;;;;;5044641;28;20077;-70
2024/01/25 16:10:17;;;;;;;20.67;15.02;;;;;;;;;;5046978;28;20033;-66
2024/01/25 16:13:58;;;;;;;20.88;15.52;;;;;;;;;;5049847;28;20910;-67
2024/01/25 16:17:38;;;;;;;25.38;15.55;;;;;;;;;;5047045;28;20382;-70
2024/01/25 16:21:19;;;;;;;27.75;16.13;;;;;;;;;;5035230;28;20059;-66
2024/01/25 16:25:00;;;;;;;22.98;14.93;;;;;;;;;;5050318;28;20492;-65
2024/01/25 16:28:40;;;;;;;22.02;16.35;;;;;;;;;;5043324;28;20037;-65
2024/01/25 16:32:22;;;;;;;21.30;16.02;;;;;;;;;;5043311;28;20049;-66
2024/01/25 16:36:06;;;;;;;20.40;15.40;;;;;;;;;;5047935;28;20052;-65
2024/01/25 16:39:46;;;;;;;25.30;15.80;;;;;;;;;;5043089;28;20041;-65
2024/01/25 16:43:28;;;;;;;22.52;16.23;;;;;;;;;;5047451;28;20041;-67
2024/01/25 16:47:09;;;;;;;23.10;16.73;;;;;;;;;;5048407;28;20049;-65
2024/01/25 16:50:54;;;;;;;20.02;14.88;;;;;;;;;;5036972;28;20041;-67
2024/01/25 16:54:37;;;;;;;22.70;14.98;;;;;;;;;;5046417;28;20404;-70
2024/01/25 16:58:17;;;;;;;31.10;15.50;;;;;;;;;;5047469;28;20049;-69
2024/01/25 17:01:58;;;;;;;28.10;16.25;;;;;;;;;;5050305;28;20048;-69
2024/01/25 17:05:39;;;;;;;22.42;15.10;;;;;;;;;;5044848;28;20501;-67
2024/01/25 17:09:21;;;;;;;20.25;15.35;;;;;;;;;;5049261;28;20140;-68
2024/01/25 17:13:00;;;;;;;23.73;14.95;;;;;;;;;;5043780;28;20406;-67
2024/01/25 17:16:40;;;;;;;28.23;16.80;;;;;;;;;;5042517;28;20473;-67
2024/01/25 17:20:20;;;;;;;23.05;15.18;;;;;;;;;;5045338;28;20420;-65
2024/01/25 17:24:01;;;;;;;24.10;16.13;;;;;;;;;;5049051;28;20049;-66
2024/01/25 17:27:41;;;;;;;19.55;14.98;;;;;;;;;;5046025;28;20033;-68
2024/01/25 17:31:21;;;;;;;19.25;14.20;;;;;;;;;;5044008;28;20109;-66
2024/01/25 17:35:02;;;;;;;22.38;15.45;;;;;;;;;;5047350;28;20079;-65
2024/01/25 17:38:45;;;;;;;22.42;15.55;;;;;;;;;;5049656;28;20049;-66
2024/01/25 17:42:22;;;;;;;25.95;15.13;;;;;;;;;;5048024;28;20434;-64
2024/01/25 17:46:04;;;;;;;25.35;15.00;;;;;;;;;;5046511;28;20079;-67
2024/01/25 17:49:44;;;;;;;27.42;15.15;;;;;;;;;;5055641;28;20098;-66
2024/01/25 17:53:27;;;;;;;24.63;15.20;;;;;;;;;;5053533;28;20064;-66
2024/01/25 17:57:12;;;;;;;30.20;16.02;;;;;;;;;;5046048;28;20053;-65
2024/01/25 18:00:55;;;;;;;26.13;16.10;;;;;;;;;;5046099;28;20080;-65
2024/01/25 18:04:35;;;;;;;25.50;15.35;;;;;;;;;;5044711;28;20045;-70
2024/01/25 18:08:16;;;;;;;30.63;16.17;;;;;;;;;;5046841;28;20072;-68
2024/01/25 18:11:56;;;;;;;29.50;16.10;;;;;;;;;;5042087;28;20079;-66
2024/01/25 18:15:36;;;;;;;24.40;16.35;;;;;;;;;;5040016;28;20187;-67
2024/01/25 18:19:17;;;;;;;24.45;15.98;;;;;;;;;;5042382;28;20052;-68
2024/01/25 18:22:57;;;;;;;23.55;15.52;;;;;;;;;;5044409;28;20270;-67
2024/01/25 18:26:37;;;;;;;25.52;16.75;;;;;;;;;;5040588;28;20041;-65
2024/01/25 18:30:18;;;;;;;29.10;17.05;;;;;;;;;;5041744;28;20069;-67
2024/01/25 18:33:58;;;;;;;27.10;17.33;;;;;;;;;;5042634;28;20362;-67
2024/01/25 18:37:38;;;;;;;27.55;16.67;;;;;;;;;;5041685;28;20489;-67
2024/01/25 18:41:19;;;;;;;25.00;16.58;;;;;;;;;;5044241;28;20072;-66
2024/01/25 18:45:03;;;;;;;25.80;17.40;;;;;;;;;;5047191;28;20475;-67
2024/01/25 18:48:42;;;;;;;24.77;17.08;;;;;;;;;;5040726;28;20041;-69
2024/01/25 18:52:26;;;;;;;28.15;17.75;;;;;;;;;;5048639;28;20523;-68
2024/01/25 18:56:06;;;;;;;27.50;16.73;;;;;;;;;;5034793;28;20064;-68
2024/01/25 18:59:47;;;;;;;30.33;18.85;;;;;;;;;;5040653;28;20045;-65
2024/01/25 19:03:28;;;;;;;30.92;17.98;;;;;;;;;;5041952;28;20045;-67
2024/01/25 19:07:12;;;;;;;37.92;19.17;;;;;;;;;;5045160;28;20092;-68
2024/01/25 19:10:54;;;;;;;28.95;18.08;;;;;;;;;;5045729;28;20378;-65
2024/01/25 19:14:33;;;;;;;39.80;19.65;;;;;;;;;;5046461;28;20390;-67
2024/01/25 19:18:13;;;;;;;36.22;18.65;;;;;;;;;;5043743;28;20520;-67
2024/01/25 19:21:54;;;;;;;39.63;19.20;;;;;;;;;;5047789;28;20149;-68
2024/01/25 19:24:54;;;;;;;34.63;19.73;;;;;;;;;;5044361;28;20449;-65
2024/01/25 19:27:20;;;;;;;36.00;20.00;;;;;;;;;;5034777;28;20044;-67
2024/01/25 19:29:47;;;;;;;33.80;21.35;;;;;;;;;;5036376;28;20107;-68
2024/01/25 19:32:13;;;;;;;39.28;20.42;;;;;;;;;;5043146;28;20132;-66
2024/01/25 19:34:39;;;;;;;32.88;20.02;;;;;;;;;;5043127;28;20136;-65
2024/01/25 19:37:45;;;;;;;39.15;20.73;;;;;;;;;;5043346;28;20460;-66
2024/01/25 19:41:26;;;;;;;36.47;20.55;;;;;;;;;;5043447;28;20528;-66
2024/01/25 19:45:07;;;;;;;33.53;19.33;;;;;;;;;;5037112;28;20041;-64
2024/01/25 19:48:47;;;;;;;37.13;21.30;;;;;;;;;;5035208;28;20049;-65
2024/01/25 19:52:27;;;;;;;35.60;20.63;;;;;;;;;;5043336;28;20056;-66
2024/01/25 19:56:08;;;;;;;43.15;20.70;;;;;;;;;;5042363;28;20404;-68
2024/01/25 19:59:09;;;;;;;42.10;22.05;;;;;;;;;;5038142;28;20555;-64
2024/01/25 20:02:15;;;;;;;32.95;21.15;;;;;;;;;;5031874;28;20585;-65
2024/01/25 20:05:56;;;;;;;36.15;22.55;;;;;;;;;;5027354;28;20052;-66
2024/01/25 20:09:37;;;;;;;32.63;22.48;;;;;;;;;;5032362;28;20366;-65
2024/01/25 20:13:17;;;;;;;40.35;22.80;;;;;;;;;;5029970;28;20053;-66
2024/01/25 20:16:58;;;;;;;48.70;23.70;;;;;;;;;;5032576;28;20056;-64
2024/01/25 20:20:38;;;;;;;40.22;21.90;;;;;;;;;;5030521;28;20036;-65
2024/01/25 20:24:20;;;;;;;38.78;22.15;;;;;;;;;;5033093;28;20149;-67
2024/01/25 20:28:01;;;;;;;45.63;22.17;;;;;;;;;;5035508;28;20041;-65
2024/01/25 20:31:42;;;;;;;43.78;25.48;;;;;;;;;;5030586;28;20484;-65
2024/01/25 20:35:23;;;;;;;47.53;24.98;;;;;;;;;;5034464;28;20048;-66
2024/01/25 20:39:07;;;;;;;46.33;24.98;;;;;;;;;;5033466;28;20504;-64
2024/01/25 20:42:48;;;;;;;56.80;26.33;;;;;;;;;;5032102;28;20056;-65
2024/01/25 20:46:29;;;;;;;48.20;26.92;;;;;;;;;;5032008;28;20906;-66
2024/01/25 20:49:30;;;;;;;47.38;25.73;;;;;;;;;;5030855;28;20123;-68
2024/01/25 20:52:37;;;;;;;43.50;25.65;;;;;;;;;;5048969;28;20060;-66